Weather at Coronel Alexandre Raposo Airport

Public forecast

Using degrees Celsius for public forecast. Weather courtesy of forecast.io.

Closest aviation weather report (METAR) to Coronel Alexandre Raposo Airport

Closest report is Marechal Cunha Machado International Airport, 7.8 nm (14.4 km) WSW.

2024/07/21 16:00 (retrieved 44 minutes ago)

SBSL 211600Z 11008KT 9999 SCT035 31/22 Q1013

Closest aviation forecast (TAF) to Coronel Alexandre Raposo Airport

Closest forecast is Marechal Cunha Machado International Airport, 7.8 nm (14.4 km) WSW.

2024/07/21 12:00 (retrieved 5 hours ago)

TAF SBSL 210916Z 2112/2212 05007KT 9999 SCT023 TX32/2117Z TN24/2209Z BECMG 2112/2114 10007KT TEMPO 2114/2121 01007KT 6000 BKN016 FEW025TCU BECMG 2121/2124 05007KT RMK PHC